CWRX

Rowley Island  Airport

Canada

CWRX 200000Z AUTO 10021G37KT 040V120 ////SM //// ////// M13/M14 A3024

Observed Flight Rules
Nov-20 @ 00:00 UTC (24 minutes ago)
Unavailable
Wind
100° at 21 knots
 Gusting to 37 knots
Temperatures Readings
Current -13°C / 9°F
Dewpoint -14°C / 7°F
Humidity 92%
Altimeter 30.24" Hg
Pressure 1024 hPa
Elevation 41
Observed Flight Rules
Nov-20 @ 00:00 UTC
(24 minutes ago)
UNK
Wind
100° at 21 knots
 Gusting to 37 knots
Temperature Dewpoint
-13°C / 9°F -14°C / 7°F
Humidity Altimeter Pressure
92% 30.24" Hg 1024 hPa